sensor_id;sensor_type;location;lat;lon;timestamp;pressure;altitude;pressure_sealevel;temperature;humidity
65173;BME280;69059;52.218;5.172;2023-05-20T00:01:34;101740.44;;;12.59;100.00
65173;BME280;69059;52.218;5.172;2023-05-20T00:04:01;101731.09;;;12.64;100.00
65173;BME280;69059;52.218;5.172;2023-05-20T00:06:29;101724.06;;;12.56;100.00
65173;BME280;69059;52.218;5.172;2023-05-20T00:08:57;101705.09;;;12.54;100.00
65173;BME280;69059;52.218;5.172;2023-05-20T00:11:27;101695.41;;;12.55;100.00
65173;BME280;69059;52.218;5.172;2023-05-20T00:13:55;101645.91;;;12.37;100.00
65173;BME280;69059;52.218;5.172;2023-05-20T00:16:22;101687.22;;;12.58;100.00
65173;BME280;69059;52.218;5.172;2023-05-20T00:18:50;101675.00;;;12.50;100.00
65173;BME280;69059;52.218;5.172;2023-05-20T00:21:18;101655.03;;;12.41;100.00
65173;BME280;69059;52.218;5.172;2023-05-20T00:23:46;101642.28;;;12.46;100.00
65173;BME280;69059;52.218;5.172;2023-05-20T00:26:13;101621.38;;;12.38;100.00
65173;BME280;69059;52.218;5.172;2023-05-20T00:28:43;101597.97;;;12.37;100.00
65173;BME280;69059;52.218;5.172;2023-05-20T00:31:10;101580.94;;;12.33;100.00
65173;BME280;69059;52.218;5.172;2023-05-20T00:33:39;101570.97;;;12.36;100.00
65173;BME280;69059;52.218;5.172;2023-05-20T00:36:07;101577.84;;;12.37;100.00
65173;BME280;69059;52.218;5.172;2023-05-20T00:38:35;101569.97;;;12.37;100.00
65173;BME280;69059;52.218;5.172;2023-05-20T00:41:02;101574.06;;;12.40;100.00
65173;BME280;69059;52.218;5.172;2023-05-20T00:43:30;101572.59;;;12.37;100.00
65173;BME280;69059;52.218;5.172;2023-05-20T00:45:59;101547.56;;;12.35;100.00
65173;BME280;69059;52.218;5.172;2023-05-20T00:48:31;101529.47;;;12.25;100.00
65173;BME280;69059;52.218;5.172;2023-05-20T00:51:03;101516.38;;;12.25;100.00
65173;BME280;69059;52.218;5.172;2023-05-20T00:53:33;101491.69;;;12.19;100.00
65173;BME280;69059;52.218;5.172;2023-05-20T00:56:01;101455.59;;;12.07;100.00
65173;BME280;69059;52.218;5.172;2023-05-20T00:58:29;101429.75;;;12.12;100.00
65173;BME280;69059;52.218;5.172;2023-05-20T01:00:57;101412.09;;;12.06;100.00
65173;BME280;69059;52.218;5.172;2023-05-20T01:03:27;101412.34;;;12.19;100.00
65173;BME280;69059;52.218;5.172;2023-05-20T01:05:55;101421.72;;;12.13;100.00
65173;BME280;69059;52.218;5.172;2023-05-20T01:08:24;101401.13;;;12.10;100.00
65173;BME280;69059;52.218;5.172;2023-05-20T01:10:54;101400.38;;;12.02;100.00
65173;BME280;69059;52.218;5.172;2023-05-20T01:13:28;101359.53;;;11.93;100.00
65173;BME280;69059;52.218;5.172;2023-05-20T01:15:58;101329.19;;;11.83;100.00
65173;BME280;69059;52.218;5.172;2023-05-20T01:18:29;101298.13;;;11.80;100.00
65173;BME280;69059;52.218;5.172;2023-05-20T01:20:58;101290.41;;;11.87;100.00
65173;BME280;69059;52.218;5.172;2023-05-20T01:23:37;101285.34;;;11.86;100.00
65173;BME280;69059;52.218;5.172;2023-05-20T01:26:05;101287.78;;;11.87;100.00
65173;BME280;69059;52.218;5.172;2023-05-20T01:28:35;101281.16;;;11.76;100.00
65173;BME280;69059;52.218;5.172;2023-05-20T01:31:05;101244.56;;;11.76;100.00
65173;BME280;69059;52.218;5.172;2023-05-20T01:33:38;101236.72;;;11.68;100.00
65173;BME280;69059;52.218;5.172;2023-05-20T01:36:07;101235.22;;;11.74;100.00
65173;BME280;69059;52.218;5.172;2023-05-20T01:38:38;101230.47;;;11.77;100.00
65173;BME280;69059;52.218;5.172;2023-05-20T01:41:08;101204.13;;;11.56;100.00
65173;BME280;69059;52.218;5.172;2023-05-20T01:43:37;101242.50;;;11.87;100.00
65173;BME280;69059;52.218;5.172;2023-05-20T01:46:05;101229.97;;;11.74;100.00
65173;BME280;69059;52.218;5.172;2023-05-20T01:48:33;101227.22;;;11.75;100.00
65173;BME280;69059;52.218;5.172;2023-05-20T01:51:01;101214.63;;;11.71;100.00
65173;BME280;69059;52.218;5.172;2023-05-20T01:53:29;101210.22;;;11.71;100.00
65173;BME280;69059;52.218;5.172;2023-05-20T01:55:58;101160.72;;;11.47;100.00
65173;BME280;69059;52.218;5.172;2023-05-20T01:58:26;101162.28;;;11.56;100.00
65173;BME280;69059;52.218;5.172;2023-05-20T02:00:53;101161.22;;;11.65;100.00
65173;BME280;69059;52.218;5.172;2023-05-20T02:03:21;101178.38;;;11.68;100.00
65173;BME280;69059;52.218;5.172;2023-05-20T02:05:49;101168.44;;;11.63;100.00
65173;BME280;69059;52.218;5.172;2023-05-20T02:08:17;101175.66;;;11.61;100.00
65173;BME280;69059;52.218;5.172;2023-05-20T02:10:47;101146.34;;;11.51;100.00
65173;BME280;69059;52.218;5.172;2023-05-20T02:13:16;101152.28;;;11.60;100.00
65173;BME280;69059;52.218;5.172;2023-05-20T02:15:43;101153.09;;;11.60;100.00
65173;BME280;69059;52.218;5.172;2023-05-20T02:18:11;101134.34;;;11.57;100.00
65173;BME280;69059;52.218;5.172;2023-05-20T02:20:39;101149.22;;;11.56;100.00
65173;BME280;69059;52.218;5.172;2023-05-20T02:23:08;101162.28;;;11.56;100.00
65173;BME280;69059;52.218;5.172;2023-05-20T02:25:36;101167.69;;;11.55;100.00
65173;BME280;69059;52.218;5.172;2023-05-20T02:28:04;101176.34;;;11.55;100.00
65173;BME280;69059;52.218;5.172;2023-05-20T02:30:37;101157.78;;;11.50;100.00
65173;BME280;69059;52.218;5.172;2023-05-20T02:33:05;101148.66;;;11.46;100.00
65173;BME280;69059;52.218;5.172;2023-05-20T02:35:35;101142.13;;;11.42;100.00
65173;BME280;69059;52.218;5.172;2023-05-20T02:38:03;101148.00;;;11.44;100.00
65173;BME280;69059;52.218;5.172;2023-05-20T02:40:31;101144.06;;;11.48;100.00
65173;BME280;69059;52.218;5.172;2023-05-20T02:42:59;101124.56;;;11.36;100.00
65173;BME280;69059;52.218;5.172;2023-05-20T02:45:27;101114.56;;;11.39;100.00
65173;BME280;69059;52.218;5.172;2023-05-20T02:47:56;101114.38;;;11.41;100.00
65173;BME280;69059;52.218;5.172;2023-05-20T02:50:24;101114.38;;;11.41;100.00
65173;BME280;69059;52.218;5.172;2023-05-20T02:52:51;101094.00;;;11.36;100.00
65173;BME280;69059;52.218;5.172;2023-05-20T02:55:19;101097.06;;;11.40;100.00
65173;BME280;69059;52.218;5.172;2023-05-20T02:57:47;101115.34;;;11.40;100.00
65173;BME280;69059;52.218;5.172;2023-05-20T03:00:15;101089.63;;;11.29;100.00
65173;BME280;69059;52.218;5.172;2023-05-20T03:02:44;101096.28;;;11.39;100.00
65173;BME280;69059;52.218;5.172;2023-05-20T03:05:13;101096.63;;;11.36;100.00
65173;BME280;69059;52.218;5.172;2023-05-20T03:07:41;101086.50;;;11.33;100.00
65173;BME280;69059;52.218;5.172;2023-05-20T03:10:09;101071.97;;;11.31;100.00
65173;BME280;69059;52.218;5.172;2023-05-20T03:12:37;101076.41;;;11.30;100.00
65173;BME280;69059;52.218;5.172;2023-05-20T03:15:05;101080.13;;;11.36;100.00
65173;BME280;69059;52.218;5.172;2023-05-20T03:17:34;101072.28;;;11.36;100.00
65173;BME280;69059;52.218;5.172;2023-05-20T03:20:02;101096.63;;;11.36;100.00
65173;BME280;69059;52.218;5.172;2023-05-20T03:22:34;101094.88;;;11.29;100.00
65173;BME280;69059;52.218;5.172;2023-05-20T03:25:01;101094.06;;;11.28;100.00
65173;BME280;69059;52.218;5.172;2023-05-20T03:27:29;101090.91;;;11.33;100.00
65173;BME280;69059;52.218;5.172;2023-05-20T03:29:57;101095.47;;;11.39;100.00
65173;BME280;69059;52.218;5.172;2023-05-20T03:32:25;101102.91;;;11.42;100.00
65173;BME280;69059;52.218;5.172;2023-05-20T03:34:52;101095.47;;;11.39;100.00
65173;BME280;69059;52.218;5.172;2023-05-20T03:37:23;101065.25;;;11.36;100.00
65173;BME280;69059;52.218;5.172;2023-05-20T03:39:52;101074.00;;;11.43;100.00
65173;BME280;69059;52.218;5.172;2023-05-20T03:42:20;101042.06;;;11.33;100.00
65173;BME280;69059;52.218;5.172;2023-05-20T03:44:48;101044.50;;;11.35;100.00
65173;BME280;69059;52.218;5.172;2023-05-20T03:47:16;101051.19;;;11.37;100.00
65173;BME280;69059;52.218;5.172;2023-05-20T03:49:43;101007.38;;;11.25;100.00
65173;BME280;69059;52.218;5.172;2023-05-20T03:52:11;101014.94;;;11.34;100.00
65173;BME280;69059;52.218;5.172;2023-05-20T03:54:39;101010.53;;;11.35;100.00
65173;BME280;69059;52.218;5.172;2023-05-20T03:57:08;101036.66;;;11.35;100.00
65173;BME280;69059;52.218;5.172;2023-05-20T03:59:36;101038.28;;;11.36;100.00
65173;BME280;69059;52.218;5.172;2023-05-20T04:02:05;101016.09;;;11.32;100.00
65173;BME280;69059;52.218;5.172;2023-05-20T04:04:33;101000.31;;;11.40;100.00
65173;BME280;69059;52.218;5.172;2023-05-20T04:07:01;100995.09;;;11.40;100.00
65173;BME280;69059;52.218;5.172;2023-05-20T04:09:30;100996.94;;;11.39;100.00
65173;BME280;69059;52.218;5.172;2023-05-20T04:11:57;100996.72;;;11.41;100.00
65173;BME280;69059;52.218;5.172;2023-05-20T04:14:27;101002.78;;;11.41;100.00
65173;BME280;69059;52.218;5.172;2023-05-20T04:16:56;101008.16;;;11.40;100.00
65173;BME280;69059;52.218;5.172;2023-05-20T04:19:24;100987.63;;;11.37;100.00
65173;BME280;69059;52.218;5.172;2023-05-20T04:21:54;100984.63;;;11.40;100.00
65173;BME280;69059;52.218;5.172;2023-05-20T04:24:22;100966.44;;;11.46;100.00
65173;BME280;69059;52.218;5.172;2023-05-20T04:26:50;100944.19;;;11.51;100.00
65173;BME280;69059;52.218;5.172;2023-05-20T04:29:18;100935.72;;;11.48;100.00
65173;BME280;69059;52.218;5.172;2023-05-20T04:31:47;100953.66;;;11.52;100.00
65173;BME280;69059;52.218;5.172;2023-05-20T04:34:15;100946.41;;;11.54;100.00
65173;BME280;69059;52.218;5.172;2023-05-20T04:36:45;100954.53;;;11.59;100.00
65173;BME280;69059;52.218;5.172;2023-05-20T04:39:14;100953.03;;;11.64;100.00
65173;BME280;69059;52.218;5.172;2023-05-20T04:41:42;100943.16;;;11.66;100.00
65173;BME280;69059;52.218;5.172;2023-05-20T04:44:09;100953.09;;;11.71;100.00
65173;BME280;69059;52.218;5.172;2023-05-20T04:46:38;100951.81;;;11.67;100.00
65173;BME280;69059;52.218;5.172;2023-05-20T04:49:08;100943.44;;;11.71;100.00
65173;BME280;69059;52.218;5.172;2023-05-20T04:51:36;100937.13;;;11.80;100.00
65173;BME280;69059;52.218;5.172;2023-05-20T04:54:03;100945.88;;;11.88;100.00
65173;BME280;69059;52.218;5.172;2023-05-20T04:56:31;100951.53;;;11.91;100.00
65173;BME280;69059;52.218;5.172;2023-05-20T04:58:59;100969.94;;;11.98;100.00
65173;BME280;69059;52.218;5.172;2023-05-20T05:01:27;100964.53;;;11.99;100.00
65173;BME280;69059;52.218;5.172;2023-05-20T05:03:55;100965.16;;;12.01;100.00
65173;BME280;69059;52.218;5.172;2023-05-20T05:06:24;100951.91;;;12.03;100.00
65173;BME280;69059;52.218;5.172;2023-05-20T05:08:52;100957.91;;;12.03;100.00
65173;BME280;69059;52.218;5.172;2023-05-20T05:11:19;100954.22;;;12.12;100.00
65173;BME280;69059;52.218;5.172;2023-05-20T05:13:47;100941.03;;;12.06;100.00
65173;BME280;69059;52.218;5.172;2023-05-20T05:16:15;100929.88;;;11.97;100.00
65173;BME280;69059;52.218;5.172;2023-05-20T05:18:43;100922.19;;;12.10;100.00
65173;BME280;69059;52.218;5.172;2023-05-20T05:21:10;100926.75;;;12.23;100.00
65173;BME280;69059;52.218;5.172;2023-05-20T05:23:40;100927.78;;;12.29;100.00
65173;BME280;69059;52.218;5.172;2023-05-20T05:26:08;100922.66;;;12.42;100.00
65173;BME280;69059;52.218;5.172;2023-05-20T05:28:35;100927.00;;;12.49;100.00
65173;BME280;69059;52.218;5.172;2023-05-20T05:31:03;100918.06;;;12.44;100.00
65173;BME280;69059;52.218;5.172;2023-05-20T05:33:32;100925.19;;;12.50;100.00
65173;BME280;69059;52.218;5.172;2023-05-20T05:36:00;100904.56;;;12.68;100.00
65173;BME280;69059;52.218;5.172;2023-05-20T05:38:28;100908.16;;;12.61;100.00
65173;BME280;69059;52.218;5.172;2023-05-20T05:40:57;100922.09;;;12.68;100.00
65173;BME280;69059;52.218;5.172;2023-05-20T05:43:25;100945.66;;;12.68;100.00
65173;BME280;69059;52.218;5.172;2023-05-20T05:45:52;100950.50;;;12.64;100.00
65173;BME280;69059;52.218;5.172;2023-05-20T05:48:20;100958.22;;;12.72;100.00
65173;BME280;69059;52.218;5.172;2023-05-20T05:50:49;100940.81;;;12.65;100.00
65173;BME280;69059;52.218;5.172;2023-05-20T05:53:16;100938.25;;;12.71;100.00
65173;BME280;69059;52.218;5.172;2023-05-20T05:55:45;100948.16;;;12.76;100.00
65173;BME280;69059;52.218;5.172;2023-05-20T05:58:14;100948.28;;;12.68;100.00
65173;BME280;69059;52.218;5.172;2023-05-20T06:00:42;100918.47;;;12.69;100.00
65173;BME280;69059;52.218;5.172;2023-05-20T06:03:10;100929.75;;;12.69;100.00
65173;BME280;69059;52.218;5.172;2023-05-20T06:05:38;100921.19;;;12.82;100.00
65173;BME280;69059;52.218;5.172;2023-05-20T06:08:06;100925.09;;;12.92;100.00
65173;BME280;69059;52.218;5.172;2023-05-20T06:10:34;100927.25;;;12.82;100.00
65173;BME280;69059;52.218;5.172;2023-05-20T06:13:01;100930.06;;;13.09;100.00
65173;BME280;69059;52.218;5.172;2023-05-20T06:15:31;100938.81;;;13.16;100.00
65173;BME280;69059;52.218;5.172;2023-05-20T06:17:59;100939.22;;;13.19;100.00
65173;BME280;69059;52.218;5.172;2023-05-20T06:20:27;100956.66;;;13.34;100.00
65173;BME280;69059;52.218;5.172;2023-05-20T06:22:54;100966.03;;;13.49;100.00
65173;BME280;69059;52.218;5.172;2023-05-20T06:25:22;100973.31;;;13.54;100.00
65173;BME280;69059;52.218;5.172;2023-05-20T06:27:50;101009.25;;;13.60;100.00
65173;BME280;69059;52.218;5.172;2023-05-20T06:30:18;100998.91;;;13.86;100.00
65173;BME280;69059;52.218;5.172;2023-05-20T06:32:47;101009.13;;;14.16;100.00
65173;BME280;69059;52.218;5.172;2023-05-20T06:35:15;101008.59;;;14.40;100.00
65173;BME280;69059;52.218;5.172;2023-05-20T06:37:43;101063.63;;;14.55;100.00
65173;BME280;69059;52.218;5.172;2023-05-20T06:40:11;101093.59;;;14.80;100.00
65173;BME280;69059;52.218;5.172;2023-05-20T06:42:39;101131.16;;;14.74;100.00
65173;BME280;69059;52.218;5.172;2023-05-20T06:45:07;101194.72;;;14.91;100.00
65173;BME280;69059;52.218;5.172;2023-05-20T06:47:35;101237.41;;;14.99;100.00
65173;BME280;69059;52.218;5.172;2023-05-20T06:50:05;101244.34;;;15.20;100.00
65173;BME280;69059;52.218;5.172;2023-05-20T06:52:33;101301.63;;;15.25;100.00
65173;BME280;69059;52.218;5.172;2023-05-20T06:55:01;101290.34;;;15.44;100.00
65173;BME280;69059;52.218;5.172;2023-05-20T06:57:29;101350.50;;;15.54;100.00
65173;BME280;69059;52.218;5.172;2023-05-20T06:59:57;101361.59;;;15.49;100.00
65173;BME280;69059;52.218;5.172;2023-05-20T07:02:25;101392.66;;;15.67;100.00
65173;BME280;69059;52.218;5.172;2023-05-20T07:04:53;101438.88;;;15.76;100.00
65173;BME280;69059;52.218;5.172;2023-05-20T07:07:22;101476.53;;;15.76;100.00
65173;BME280;69059;52.218;5.172;2023-05-20T07:09:49;101467.84;;;15.41;100.00
65173;BME280;69059;52.218;5.172;2023-05-20T07:12:17;101431.44;;;15.93;100.00
65173;BME280;69059;52.218;5.172;2023-05-20T07:14:45;101471.19;;;16.18;100.00
65173;BME280;69059;52.218;5.172;2023-05-20T07:17:13;101574.22;;;16.42;100.00
65173;BME280;69059;52.218;5.172;2023-05-20T07:19:40;101572.00;;;16.59;100.00
65173;BME280;69059;52.218;5.172;2023-05-20T07:22:08;101588.72;;;16.73;100.00
65173;BME280;69059;52.218;5.172;2023-05-20T07:24:37;101668.03;;;16.37;100.00
65173;BME280;69059;52.218;5.172;2023-05-20T07:27:05;101642.06;;;16.68;100.00
65173;BME280;69059;52.218;5.172;2023-05-20T07:29:34;101651.25;;;16.92;100.00
65173;BME280;69059;52.218;5.172;2023-05-20T07:32:02;101686.59;;;17.24;100.00
65173;BME280;69059;52.218;5.172;2023-05-20T07:34:31;101753.59;;;17.36;100.00
65173;BME280;69059;52.218;5.172;2023-05-20T07:36:58;101779.81;;;17.51;100.00
65173;BME280;69059;52.218;5.172;2023-05-20T07:39:26;101862.56;;;17.65;100.00
65173;BME280;69059;52.218;5.172;2023-05-20T07:41:55;101874.69;;;17.52;100.00
65173;BME280;69059;52.218;5.172;2023-05-20T07:44:23;101850.53;;;17.62;100.00
65173;BME280;69059;52.218;5.172;2023-05-20T07:46:52;101908.97;;;18.07;100.00
65173;BME280;69059;52.218;5.172;2023-05-20T07:49:20;101943.94;;;18.29;100.00
65173;BME280;69059;52.218;5.172;2023-05-20T07:51:47;102034.13;;;17.99;100.00
65173;BME280;69059;52.218;5.172;2023-05-20T07:54:15;102044.00;;;17.71;100.00
65173;BME280;69059;52.218;5.172;2023-05-20T07:56:43;102029.66;;;18.00;100.00
65173;BME280;69059;52.218;5.172;2023-05-20T07:59:13;102007.19;;;18.23;100.00
65173;BME280;69059;52.218;5.172;2023-05-20T08:01:41;102071.25;;;18.39;100.00
65173;BME280;69059;52.218;5.172;2023-05-20T08:04:09;102061.03;;;18.09;100.00
65173;BME280;69059;52.218;5.172;2023-05-20T08:06:37;102064.38;;;18.51;100.00
65173;BME280;69059;52.218;5.172;2023-05-20T08:09:05;102083.59;;;18.86;100.00
65173;BME280;69059;52.218;5.172;2023-05-20T08:11:33;102104.19;;;19.10;100.00
65173;BME280;69059;52.218;5.172;2023-05-20T08:14:01;102120.66;;;19.25;100.00
65173;BME280;69059;52.218;5.172;2023-05-20T08:16:30;102131.22;;;18.86;100.00
65173;BME280;69059;52.218;5.172;2023-05-20T08:18:58;102131.66;;;18.96;100.00
65173;BME280;69059;52.218;5.172;2023-05-20T08:21:26;102134.50;;;19.21;100.00
65173;BME280;69059;52.218;5.172;2023-05-20T08:23:54;102136.94;;;19.16;100.00
65173;BME280;69059;52.218;5.172;2023-05-20T08:26:22;102163.22;;;19.30;100.00
65173;BME280;69059;52.218;5.172;2023-05-20T08:28:49;102172.00;;;19.51;100.00
65173;BME280;69059;52.218;5.172;2023-05-20T08:31:17;102146.72;;;19.68;100.00
65173;BME280;69059;52.218;5.172;2023-05-20T08:33:46;102196.44;;;19.86;100.00
65173;BME280;69059;52.218;5.172;2023-05-20T08:36:14;102206.22;;;19.79;100.00
65173;BME280;69059;52.218;5.172;2023-05-20T08:38:42;102193.09;;;20.17;100.00
65173;BME280;69059;52.218;5.172;2023-05-20T08:41:10;102211.66;;;20.17;100.00
65173;BME280;69059;52.218;5.172;2023-05-20T08:43:38;102200.38;;;20.48;100.00
65173;BME280;69059;52.218;5.172;2023-05-20T08:46:06;102212.09;;;20.65;100.00
65173;BME280;69059;52.218;5.172;2023-05-20T08:48:35;102220.38;;;20.44;100.00
65173;BME280;69059;52.218;5.172;2023-05-20T08:51:08;102220.59;;;20.80;100.00
65173;BME280;69059;52.218;5.172;2023-05-20T08:53:36;102237.22;;;21.07;100.00
65173;BME280;69059;52.218;5.172;2023-05-20T08:56:04;102226.00;;;21.36;100.00
65173;BME280;69059;52.218;5.172;2023-05-20T08:58:33;102235.97;;;21.66;100.00
65173;BME280;69059;52.218;5.172;2023-05-20T09:01:01;102239.09;;;21.63;100.00
65173;BME280;69059;52.218;5.172;2023-05-20T09:03:29;102245.03;;;21.58;100.00
65173;BME280;69059;52.218;5.172;2023-05-20T09:06:02;102252.78;;;21.35;100.00
65173;BME280;69059;52.218;5.172;2023-05-20T09:08:32;102237.81;;;21.40;100.00
65173;BME280;69059;52.218;5.172;2023-05-20T09:11:00;102247.88;;;21.63;100.00
65173;BME280;69059;52.218;5.172;2023-05-20T09:13:29;102249.25;;;21.66;100.00
65173;BME280;69059;52.218;5.172;2023-05-20T09:15:58;102246.28;;;21.56;100.00
65173;BME280;69059;52.218;5.172;2023-05-20T09:18:27;102226.13;;;21.48;100.00
65173;BME280;69059;52.218;5.172;2023-05-20T09:20:55;102248.91;;;21.62;100.00
65173;BME280;69059;52.218;5.172;2023-05-20T09:23:23;102258.94;;;21.29;100.00
65173;BME280;69059;52.218;5.172;2023-05-20T09:25:54;102236.22;;;21.39;100.00
65173;BME280;69059;52.218;5.172;2023-05-20T09:28:23;102216.81;;;21.64;100.00
65173;BME280;69059;52.218;5.172;2023-05-20T09:30:56;102234.13;;;21.41;100.00
65173;BME280;69059;52.218;5.172;2023-05-20T09:33:26;102237.34;;;21.50;100.00
65173;BME280;69059;52.218;5.172;2023-05-20T09:36:03;102228.94;;;21.53;100.00
65173;BME280;69059;52.218;5.172;2023-05-20T09:38:33;102230.72;;;21.34;100.00
65173;BME280;69059;52.218;5.172;2023-05-20T09:41:06;102234.72;;;21.12;100.00
65173;BME280;69059;52.218;5.172;2023-05-20T09:43:35;102206.94;;;21.46;100.00
65173;BME280;69059;52.218;5.172;2023-05-20T09:46:03;102220.59;;;21.50;100.00
65173;BME280;69059;52.218;5.172;2023-05-20T09:48:31;102217.06;;;21.56;100.00
65173;BME280;69059;52.218;5.172;2023-05-20T09:50:59;102205.81;;;21.78;100.00
65173;BME280;69059;52.218;5.172;2023-05-20T09:53:28;102224.28;;;21.73;100.00
65173;BME280;69059;52.218;5.172;2023-05-20T09:55:56;102213.78;;;21.78;100.00
65173;BME280;69059;52.218;5.172;2023-05-20T09:58:26;102219.88;;;21.86;100.00
65173;BME280;69059;52.218;5.172;2023-05-20T10:00:55;102213.72;;;22.10;100.00
65173;BME280;69059;52.218;5.172;2023-05-20T10:03:23;102170.13;;;22.11;100.00
65173;BME280;69059;52.218;5.172;2023-05-20T10:09:00;102217.28;;;21.97;100.00
65173;BME280;69059;52.218;5.172;2023-05-20T10:11:46;102221.88;;;21.90;100.00
65173;BME280;69059;52.218;5.172;2023-05-20T10:14:29;102213.13;;;22.08;100.00
65173;BME280;69059;52.218;5.172;2023-05-20T10:17:04;102179.34;;;22.27;100.00
65173;BME280;69059;52.218;5.172;2023-05-20T10:19:35;102193.38;;;22.52;100.00
65173;BME280;69059;52.218;5.172;2023-05-20T10:22:04;102217.38;;;22.64;100.00
65173;BME280;69059;52.218;5.172;2023-05-20T10:24:33;102206.47;;;21.99;100.00
65173;BME280;69059;52.218;5.172;2023-05-20T10:27:03;102151.47;;;21.74;100.00
65173;BME280;69059;52.218;5.172;2023-05-20T10:29:42;102145.31;;;21.99;100.00
65173;BME280;69059;52.218;5.172;2023-05-20T10:32:10;102188.22;;;22.39;100.00
65173;BME280;69059;52.218;5.172;2023-05-20T10:34:46;102187.63;;;22.19;100.00
65173;BME280;69059;52.218;5.172;2023-05-20T10:37:23;102179.53;;;22.43;100.00
65173;BME280;69059;52.218;5.172;2023-05-20T10:39:51;102189.16;;;22.74;100.00
65173;BME280;69059;52.218;5.172;2023-05-20T10:42:27;102160.69;;;22.75;100.00
65173;BME280;69059;52.218;5.172;2023-05-20T10:44:57;102156.81;;;22.77;100.00
65173;BME280;69059;52.218;5.172;2023-05-20T10:47:24;102164.94;;;22.64;100.00
65173;BME280;69059;52.218;5.172;2023-05-20T10:49:52;102172.59;;;22.91;100.00
65173;BME280;69059;52.218;5.172;2023-05-20T10:52:20;102170.94;;;22.78;100.00
65173;BME280;69059;52.218;5.172;2023-05-20T10:54:55;102155.41;;;22.57;100.00
65173;BME280;69059;52.218;5.172;2023-05-20T10:57:25;102160.53;;;22.88;100.00
65173;BME280;69059;52.218;5.172;2023-05-20T10:59:54;102155.22;;;22.88;100.00
65173;BME280;69059;52.218;5.172;2023-05-20T11:02:24;102168.31;;;22.71;99.71
65173;BME280;69059;52.218;5.172;2023-05-20T11:04:55;102165.66;;;22.71;100.00
65173;BME280;69059;52.218;5.172;2023-05-20T11:07:24;102158.63;;;22.47;100.00
65173;BME280;69059;52.218;5.172;2023-05-20T11:09:53;102154.00;;;22.24;100.00
65173;BME280;69059;52.218;5.172;2023-05-20T11:12:22;102132.19;;;22.64;100.00
65173;BME280;69059;52.218;5.172;2023-05-20T11:14:50;102130.34;;;23.06;100.00
65173;BME280;69059;52.218;5.172;2023-05-20T11:17:18;102136.75;;;23.40;100.00
65173;BME280;69059;52.218;5.172;2023-05-20T11:19:48;102146.16;;;23.54;100.00
65173;BME280;69059;52.218;5.172;2023-05-20T11:22:16;102136.53;;;23.65;100.00
65173;BME280;69059;52.218;5.172;2023-05-20T11:24:43;102157.25;;;23.39;100.00
65173;BME280;69059;52.218;5.172;2023-05-20T11:27:11;102143.81;;;23.34;100.00
65173;BME280;69059;52.218;5.172;2023-05-20T11:29:39;102143.13;;;23.27;100.00
65173;BME280;69059;52.218;5.172;2023-05-20T11:32:07;102133.38;;;23.44;100.00
65173;BME280;69059;52.218;5.172;2023-05-20T11:34:36;102120.63;;;23.46;100.00
65173;BME280;69059;52.218;5.172;2023-05-20T11:37:08;102136.91;;;24.08;100.00
65173;BME280;69059;52.218;5.172;2023-05-20T11:39:36;102136.84;;;24.20;100.00
65173;BME280;69059;52.218;5.172;2023-05-20T11:42:04;102141.94;;;23.81;100.00
65173;BME280;69059;52.218;5.172;2023-05-20T11:44:32;102141.38;;;23.79;98.13
65173;BME280;69059;52.218;5.172;2023-05-20T11:47:01;102144.63;;;23.70;100.00
65173;BME280;69059;52.218;5.172;2023-05-20T11:49:29;102143.13;;;23.27;100.00
65173;BME280;69059;52.218;5.172;2023-05-20T11:52:08;102121.81;;;22.74;100.00
65173;BME280;69059;52.218;5.172;2023-05-20T11:54:37;102120.84;;;23.10;100.00
65173;BME280;69059;52.218;5.172;2023-05-20T11:57:05;102136.47;;;23.06;100.00
65173;BME280;69059;52.218;5.172;2023-05-20T11:59:33;102105.13;;;23.67;100.00
65173;BME280;69059;52.218;5.172;2023-05-20T12:02:02;102116.47;;;23.62;100.00
65173;BME280;69059;52.218;5.172;2023-05-20T12:04:29;102124.09;;;23.93;99.63
65173;BME280;69059;52.218;5.172;2023-05-20T12:06:57;102096.38;;;24.51;100.00
65173;BME280;69059;52.218;5.172;2023-05-20T12:09:26;102103.19;;;24.42;100.00
65173;BME280;69059;52.218;5.172;2023-05-20T12:11:54;102109.38;;;23.91;100.00
65173;BME280;69059;52.218;5.172;2023-05-20T12:14:22;102108.56;;;23.44;99.48
65173;BME280;69059;52.218;5.172;2023-05-20T12:16:50;102105.97;;;23.96;100.00
65173;BME280;69059;52.218;5.172;2023-05-20T12:19:19;102094.72;;;24.34;100.00
65173;BME280;69059;52.218;5.172;2023-05-20T12:21:47;102088.28;;;24.46;100.00
65173;BME280;69059;52.218;5.172;2023-05-20T12:24:14;102107.78;;;24.18;92.70
65173;BME280;69059;52.218;5.172;2023-05-20T12:26:44;102101.31;;;24.43;90.86
65173;BME280;69059;52.218;5.172;2023-05-20T12:29:11;102098.34;;;23.87;95.34
65173;BME280;69059;52.218;5.172;2023-05-20T12:31:39;102095.06;;;23.97;100.00
65173;BME280;69059;52.218;5.172;2023-05-20T12:34:07;102080.94;;;24.53;100.00
65173;BME280;69059;52.218;5.172;2023-05-20T12:36:35;102067.03;;;24.23;91.36
65173;BME280;69059;52.218;5.172;2023-05-20T12:39:03;102100.47;;;24.14;88.58
65173;BME280;69059;52.218;5.172;2023-05-20T12:41:31;102089.88;;;24.31;100.00
65173;BME280;69059;52.218;5.172;2023-05-20T12:44:00;102081.09;;;24.63;92.81
65173;BME280;69059;52.218;5.172;2023-05-20T12:46:28;102087.84;;;24.66;94.08
65173;BME280;69059;52.218;5.172;2023-05-20T12:48:56;102086.97;;;25.11;97.19
65173;BME280;69059;52.218;5.172;2023-05-20T12:51:24;102071.81;;;25.16;100.00